createdAt,value
2019-03-02T00:00:54.471Z,1010.72
2019-03-02T00:01:54.469Z,1010.72
2019-03-02T00:02:56.794Z,1010.69
2019-03-02T00:03:54.492Z,1010.69
2019-03-02T00:04:54.507Z,1010.67
2019-03-02T00:05:56.955Z,1010.69
2019-03-02T00:06:54.533Z,1010.69
2019-03-02T00:07:54.545Z,1010.67
2019-03-02T00:08:56.755Z,1010.71
2019-03-02T00:09:54.570Z,1010.69
2019-03-02T00:10:54.587Z,1010.78
2019-03-02T00:11:56.602Z,1010.73
2019-03-02T00:12:54.611Z,1010.77
2019-03-02T00:13:54.625Z,1010.79
2019-03-02T00:14:55.064Z,1010.80
2019-03-02T00:15:54.649Z,1010.81
2019-03-02T00:16:54.661Z,1010.83
2019-03-02T00:17:55.147Z,1010.77
2019-03-02T00:18:54.688Z,1010.80
2019-03-02T00:19:54.704Z,1010.76
2019-03-02T00:20:55.623Z,1010.76
2019-03-02T00:21:54.726Z,1010.76
2019-03-02T00:22:54.742Z,1010.76
2019-03-02T00:23:55.288Z,1010.78
2019-03-02T00:24:58.004Z,1010.79
2019-03-02T00:25:54.777Z,1010.74
2019-03-02T00:26:54.790Z,1010.78
2019-03-02T00:27:58.200Z,1010.79
2019-03-02T00:28:54.819Z,1010.78
2019-03-02T00:29:54.829Z,1010.76
2019-03-02T00:30:57.637Z,1010.78
2019-03-02T00:31:54.853Z,1010.76
2019-03-02T00:32:54.867Z,1010.76
2019-03-02T00:33:56.639Z,1010.76
2019-03-02T00:34:54.896Z,1010.76
2019-03-02T00:35:54.905Z,1010.74
2019-03-02T00:36:58.320Z,1010.71
2019-03-02T00:37:54.933Z,1010.75
2019-03-02T00:38:54.944Z,1010.71
2019-03-02T00:39:55.665Z,1010.76
2019-03-02T00:40:54.970Z,1010.74
2019-03-02T00:41:54.984Z,1010.70
2019-03-02T00:42:54.995Z,1010.73
2019-03-02T00:43:55.010Z,1010.71
2019-03-02T00:44:55.021Z,1010.63
2019-03-02T00:45:57.217Z,1010.70
2019-03-02T00:46:56.383Z,1010.65
2019-03-02T00:47:55.064Z,1010.66
2019-03-02T00:48:55.074Z,1010.65
2019-03-02T00:49:57.257Z,1010.63
2019-03-02T00:50:55.102Z,1010.69
2019-03-02T00:51:55.112Z,1010.64
2019-03-02T00:52:55.656Z,1010.71
2019-03-02T00:53:55.138Z,1010.72
2019-03-02T00:54:58.448Z,1010.70
2019-03-02T00:55:55.164Z,1010.64
2019-03-02T00:56:55.175Z,1010.60
2019-03-02T00:57:55.190Z,1010.62
2019-03-02T00:58:55.205Z,1010.66
2019-03-02T00:59:55.215Z,1010.68
2019-03-02T01:00:55.227Z,1010.65
2019-03-02T01:01:55.242Z,1010.67
2019-03-02T01:02:55.255Z,1010.71
2019-03-02T01:03:55.267Z,1010.70
2019-03-02T01:04:57.774Z,1010.75
2019-03-02T01:05:55.297Z,1010.69
2019-03-02T01:06:55.305Z,1010.71
2019-03-02T01:07:55.940Z,1010.66
2019-03-02T01:08:55.333Z,1010.66
2019-03-02T01:09:55.345Z,1010.66
2019-03-02T01:10:58.203Z,1010.64
2019-03-02T01:11:55.371Z,1010.64
2019-03-02T01:12:55.384Z,1010.63
2019-03-02T01:13:56.852Z,1010.61
2019-03-02T01:14:55.410Z,1010.59
2019-03-02T01:15:55.435Z,1010.57
2019-03-02T01:16:55.919Z,1010.60
2019-03-02T01:17:55.525Z,1010.62
2019-03-02T01:18:55.516Z,1010.57
2019-03-02T01:19:55.525Z,1010.58
2019-03-02T01:20:55.526Z,1010.62
2019-03-02T01:21:55.568Z,1010.56
2019-03-02T01:22:55.566Z,1010.52
2019-03-02T01:23:55.565Z,1010.54
2019-03-02T01:24:55.564Z,1010.53
2019-03-02T01:25:55.570Z,1010.57
2019-03-02T01:26:55.783Z,1010.52
2019-03-02T01:27:55.577Z,1010.54
2019-03-02T01:28:55.590Z,1010.50
2019-03-02T01:29:55.605Z,1010.48
2019-03-02T01:30:55.619Z,1010.50
2019-03-02T01:31:55.637Z,1010.46
2019-03-02T01:32:55.644Z,1010.48
2019-03-02T01:33:55.660Z,1010.53
2019-03-02T01:34:55.669Z,1010.54
2019-03-02T01:35:56.936Z,1010.50
2019-03-02T01:36:55.696Z,1010.54
2019-03-02T01:37:55.710Z,1010.52
2019-03-02T01:38:55.720Z,1010.53
2019-03-02T01:39:55.734Z,1010.54
2019-03-02T01:40:55.748Z,1010.52
2019-03-02T01:41:55.779Z,1010.53
2019-03-02T01:42:55.773Z,1010.50
2019-03-02T01:43:55.784Z,1010.48
2019-03-02T01:44:55.800Z,1010.48
2019-03-02T01:45:55.810Z,1010.50
2019-03-02T01:46:55.826Z,1010.51
2019-03-02T01:47:55.835Z,1010.48
2019-03-02T01:48:58.675Z,1010.47
2019-03-02T01:49:55.864Z,1010.46
2019-03-02T01:50:55.877Z,1010.47
2019-03-02T01:51:58.166Z,1010.45
2019-03-02T01:52:55.900Z,1010.43
2019-03-02T01:53:55.914Z,1010.42
2019-03-02T01:54:56.651Z,1010.41
2019-03-02T01:55:55.941Z,1010.35
2019-03-02T01:56:55.952Z,1010.35
2019-03-02T01:57:55.965Z,1010.38
2019-03-02T01:58:55.978Z,1010.37
2019-03-02T01:59:55.995Z,1010.38
2019-03-02T02:00:56.003Z,1010.37
2019-03-02T02:01:56.600Z,1010.31
2019-03-02T02:02:56.030Z,1010.31
2019-03-02T02:03:56.040Z,1010.31
2019-03-02T02:04:57.448Z,1010.34
2019-03-02T02:05:56.067Z,1010.33
2019-03-02T02:06:56.080Z,1010.35
2019-03-02T02:07:56.102Z,1010.35
2019-03-02T02:08:56.105Z,1010.38
2019-03-02T02:09:56.116Z,1010.34
2019-03-02T02:10:56.130Z,1010.34
2019-03-02T02:11:56.143Z,1010.31
2019-03-02T02:12:56.156Z,1010.30
2019-03-02T02:13:56.181Z,1010.30
2019-03-02T02:14:56.181Z,1010.32
2019-03-02T02:15:56.196Z,1010.30
2019-03-02T02:16:56.205Z,1010.29
2019-03-02T02:17:56.221Z,1010.25
2019-03-02T02:18:59.297Z,1010.28
2019-03-02T02:19:56.244Z,1010.23
2019-03-02T02:20:56.260Z,1010.25
2019-03-02T02:21:58.776Z,1010.17
2019-03-02T02:22:56.283Z,1010.15
2019-03-02T02:23:56.295Z,1010.17
2019-03-02T02:24:56.809Z,1010.15
2019-03-02T02:25:56.321Z,1010.15
2019-03-02T02:26:56.342Z,1010.14
2019-03-02T02:27:57.829Z,1010.14
2019-03-02T02:28:56.361Z,1010.07
2019-03-02T02:29:56.370Z,1010.08
2019-03-02T02:30:56.387Z,1010.06
2019-03-02T02:31:56.396Z,1010.03
2019-03-02T02:33:02.877Z,1010.03
2019-03-02T02:33:56.424Z,1010.03
2019-03-02T02:35:00.507Z,1009.98
2019-03-02T02:35:56.452Z,1010.00
2019-03-02T02:36:58.323Z,1009.98
2019-03-02T02:37:56.474Z,1009.94
2019-03-02T02:38:56.486Z,1009.96
2019-03-02T02:39:56.499Z,1009.94
2019-03-02T02:40:56.509Z,1009.94
2019-03-02T02:42:00.147Z,1009.90
2019-03-02T02:42:56.539Z,1009.91
2019-03-02T02:43:58.964Z,1009.90
2019-03-02T02:44:56.564Z,1009.91
2019-03-02T02:45:56.573Z,1009.95
2019-03-02T02:46:56.591Z,1009.94
2019-03-02T02:47:56.601Z,1009.97
2019-03-02T02:48:56.613Z,1009.98
2019-03-02T02:49:56.631Z,1009.94
2019-03-02T02:50:56.634Z,1009.93
2019-03-02T02:51:56.653Z,1009.90
2019-03-02T02:52:56.664Z,1009.91
2019-03-02T02:53:56.675Z,1009.94
2019-03-02T02:54:57.453Z,1009.86
2019-03-02T02:55:56.699Z,1009.88
2019-03-02T02:56:58.764Z,1009.87
2019-03-02T02:57:56.726Z,1009.92
2019-03-02T02:59:00.327Z,1009.88
2019-03-02T02:59:56.752Z,1009.92
2019-03-02T03:00:56.822Z,1009.93
2019-03-02T03:01:56.777Z,1009.92
2019-03-02T03:02:56.792Z,1009.93
2019-03-02T03:03:59.505Z,1009.92
2019-03-02T03:04:56.817Z,1009.88
2019-03-02T03:05:56.835Z,1009.85
2019-03-02T03:06:56.839Z,1009.85
2019-03-02T03:07:56.852Z,1009.84
2019-03-02T03:08:56.865Z,1009.87
2019-03-02T03:09:56.877Z,1009.87
2019-03-02T03:10:56.891Z,1009.91
2019-03-02T03:11:56.921Z,1009.91
2019-03-02T03:13:01.717Z,1009.91
2019-03-02T03:13:56.931Z,1009.92
2019-03-02T03:14:58.339Z,1009.90
2019-03-02T03:15:56.954Z,1009.89
2019-03-02T03:16:56.966Z,1009.87
2019-03-02T03:17:56.981Z,1009.89
2019-03-02T03:18:56.994Z,1009.88
2019-03-02T03:19:57.004Z,1009.90
2019-03-02T03:20:57.019Z,1009.86
2019-03-02T03:21:57.033Z,1009.88
2019-03-02T03:22:57.068Z,1009.87
2019-03-02T03:24:03.197Z,1009.92
2019-03-02T03:24:57.071Z,1009.88
2019-03-02T03:25:58.552Z,1009.95
2019-03-02T03:26:57.094Z,1009.95
2019-03-02T03:27:57.113Z,1009.93
2019-03-02T03:28:57.120Z,1009.91
2019-03-02T03:29:57.138Z,1009.92
2019-03-02T03:30:57.162Z,1009.91
2019-03-02T03:32:07.595Z,1009.92
2019-03-02T03:32:59.683Z,1009.86
2019-03-02T03:33:57.245Z,1009.88
2019-03-02T03:34:57.209Z,1009.88
2019-03-02T03:35:57.740Z,1009.91
2019-03-02T03:36:57.223Z,1009.90
2019-03-02T03:37:57.238Z,1009.92
2019-03-02T03:38:57.336Z,1009.90
2019-03-02T03:39:57.335Z,1009.92
2019-03-02T03:41:00.177Z,1009.94
2019-03-02T03:41:57.335Z,1009.92
2019-03-02T03:43:02.192Z,1009.91
2019-03-02T03:43:57.336Z,1009.94
2019-03-02T03:44:59.866Z,1009.93
2019-03-02T03:45:57.410Z,1009.87
2019-03-02T03:47:00.638Z,1009.90
2019-03-02T03:47:57.413Z,1009.89
2019-03-02T03:48:57.982Z,1009.90
2019-03-02T03:49:57.391Z,1009.88
2019-03-02T03:50:57.408Z,1009.85
2019-03-02T03:51:57.421Z,1009.86
2019-03-02T03:52:57.424Z,1009.85
2019-03-02T03:54:01.483Z,1009.88
2019-03-02T03:54:57.460Z,1009.86
2019-03-02T03:56:03.308Z,1009.91
2019-03-02T03:56:57.478Z,1009.84
2019-03-02T03:58:00.459Z,1009.86
2019-03-02T03:58:57.505Z,1009.86
2019-03-02T03:59:58.793Z,1009.88
2019-03-02T04:00:57.529Z,1009.84
2019-03-02T04:01:58.419Z,1009.84
2019-03-02T04:02:57.561Z,1009.86
2019-03-02T04:03:57.569Z,1009.84
2019-03-02T04:04:57.579Z,1009.83
2019-03-02T04:05:57.595Z,1009.84
2019-03-02T04:07:01.418Z,1009.86
2019-03-02T04:07:57.624Z,1009.84
2019-03-02T04:08:57.645Z,1009.82
2019-03-02T04:09:57.646Z,1009.85
2019-03-02T04:11:00.321Z,1009.83
2019-03-02T04:11:57.670Z,1009.85
2019-03-02T04:13:04.248Z,1009.79
2019-03-02T04:13:57.695Z,1009.85
2019-03-02T04:15:01.314Z,1009.81
2019-03-02T04:15:57.720Z,1009.82
2019-03-02T04:17:00.523Z,1009.85
2019-03-02T04:17:57.745Z,1009.86
2019-03-02T04:18:58.241Z,1009.89
2019-03-02T04:19:57.770Z,1009.86
2019-03-02T04:20:57.782Z,1009.90
2019-03-02T04:22:02.115Z,1009.88
2019-03-02T04:22:57.809Z,1009.85
2019-03-02T04:24:01.297Z,1009.86
2019-03-02T04:24:57.834Z,1009.86
2019-03-02T04:25:58.293Z,1009.84
2019-03-02T04:26:57.859Z,1009.83
2019-03-02T04:27:57.874Z,1009.83
2019-03-02T04:28:57.883Z,1009.84
2019-03-02T04:29:57.897Z,1009.82
2019-03-02T04:30:57.911Z,1009.83
2019-03-02T04:31:57.922Z,1009.83
2019-03-02T04:33:01.726Z,1009.84
2019-03-02T04:33:57.944Z,1009.90
2019-03-02T04:34:58.811Z,1009.90
2019-03-02T04:35:57.969Z,1009.88
2019-03-02T04:36:57.985Z,1009.88
2019-03-02T04:38:00.740Z,1009.87
2019-03-02T04:38:58.010Z,1009.86
2019-03-02T04:39:58.025Z,1009.87
2019-03-02T04:41:00.696Z,1009.82
2019-03-02T04:41:58.049Z,1009.82
2019-03-02T04:42:58.062Z,1009.83
2019-03-02T04:43:58.072Z,1009.86
2019-03-02T04:44:58.085Z,1009.84
2019-03-02T04:45:58.096Z,1009.83
2019-03-02T04:46:58.110Z,1009.83
2019-03-02T04:47:59.963Z,1009.81
2019-03-02T04:48:58.136Z,1009.83
2019-03-02T04:49:58.153Z,1009.78
2019-03-02T04:50:59.583Z,1009.82
2019-03-02T04:51:58.172Z,1009.82
2019-03-02T04:52:58.185Z,1009.82
2019-03-02T04:54:01.593Z,1009.82
2019-03-02T04:54:58.212Z,1009.83
2019-03-02T04:55:58.225Z,1009.82
2019-03-02T04:56:58.941Z,1009.82
2019-03-02T04:57:58.251Z,1009.82
2019-03-02T04:58:58.261Z,1009.81
2019-03-02T04:59:58.274Z,1009.81
2019-03-02T05:00:58.292Z,1009.79
2019-03-02T05:01:58.308Z,1009.77
2019-03-02T05:02:58.314Z,1009.78
2019-03-02T05:03:58.325Z,1009.74
2019-03-02T05:04:58.339Z,1009.75
2019-03-02T05:05:58.349Z,1009.72
2019-03-02T05:06:58.364Z,1009.72
2019-03-02T05:07:58.375Z,1009.69
2019-03-02T05:08:58.389Z,1009.74
2019-03-02T05:09:58.401Z,1009.73
2019-03-02T05:11:00.614Z,1009.73
2019-03-02T05:11:58.425Z,1009.75
2019-03-02T05:12:58.438Z,1009.77
2019-03-02T05:14:00.714Z,1009.73
2019-03-02T05:14:58.474Z,1009.75
2019-03-02T05:15:58.475Z,1009.75
2019-03-02T05:16:58.491Z,1009.73
2019-03-02T05:17:58.503Z,1009.74
2019-03-02T05:18:58.517Z,1009.73
2019-03-02T05:20:00.942Z,1009.72
2019-03-02T05:20:58.538Z,1009.75
2019-03-02T05:21:58.552Z,1009.76
2019-03-02T05:22:58.871Z,1009.72
2019-03-02T05:23:58.578Z,1009.77
2019-03-02T05:24:58.591Z,1009.70
2019-03-02T05:25:58.602Z,1009.72
2019-03-02T05:26:58.614Z,1009.71
2019-03-02T05:27:58.626Z,1009.73
2019-03-02T05:28:58.638Z,1009.70
2019-03-02T05:29:58.652Z,1009.76
2019-03-02T05:30:58.664Z,1009.70
2019-03-02T05:31:58.676Z,1009.74
2019-03-02T05:32:58.690Z,1009.76
2019-03-02T05:34:00.755Z,1009.80
2019-03-02T05:34:58.716Z,1009.78
2019-03-02T05:35:58.727Z,1009.79
2019-03-02T05:36:59.656Z,1009.77
2019-03-02T05:37:58.757Z,1009.80
2019-03-02T05:38:58.765Z,1009.77
2019-03-02T05:39:58.777Z,1009.79
2019-03-02T05:40:59.426Z,1009.80
2019-03-02T05:41:58.818Z,1009.81
2019-03-02T05:42:58.818Z,1009.77
2019-03-02T05:43:58.828Z,1009.81
2019-03-02T05:44:58.842Z,1009.79
2019-03-02T05:45:58.856Z,1009.79
2019-03-02T05:47:01.523Z,1009.79
2019-03-02T05:48:00.944Z,1009.79
2019-03-02T05:48:58.893Z,1009.76
2019-03-02T05:49:58.905Z,1009.82
2019-03-02T05:50:58.918Z,1009.84
2019-03-02T05:51:58.930Z,1009.84
2019-03-02T05:52:58.945Z,1009.84
2019-03-02T05:53:58.956Z,1009.85
2019-03-02T05:54:58.969Z,1009.86
2019-03-02T05:55:58.981Z,1009.86
2019-03-02T05:57:00.753Z,1009.93
2019-03-02T05:57:59.006Z,1009.83
2019-03-02T05:58:59.020Z,1009.84
2019-03-02T06:00:01.619Z,1009.86
2019-03-02T06:00:59.046Z,1009.89
2019-03-02T06:01:59.057Z,1009.87
2019-03-02T06:02:59.085Z,1009.93
2019-03-02T06:03:59.160Z,1009.88
2019-03-02T06:04:59.158Z,1009.85
2019-03-02T06:05:59.157Z,1009.87
2019-03-02T06:06:59.154Z,1009.85
2019-03-02T06:08:00.480Z,1009.85
2019-03-02T06:08:59.213Z,1009.87
2019-03-02T06:09:59.209Z,1009.90
2019-03-02T06:11:01.949Z,1009.89
2019-03-02T06:11:59.226Z,1009.90
2019-03-02T06:12:59.213Z,1009.86
2019-03-02T06:13:59.215Z,1009.88
2019-03-02T06:14:59.225Z,1009.89
2019-03-02T06:15:59.234Z,1009.88
2019-03-02T06:16:59.246Z,1009.87
2019-03-02T06:17:59.261Z,1009.89
2019-03-02T06:18:59.274Z,1009.89
2019-03-02T06:20:00.162Z,1009.85
2019-03-02T06:20:59.298Z,1009.86
2019-03-02T06:21:59.311Z,1009.87
2019-03-02T06:22:59.333Z,1009.89
2019-03-02T06:24:01.650Z,1009.91
2019-03-02T06:24:59.354Z,1009.89
2019-03-02T06:26:00.040Z,1009.92
2019-03-02T06:26:59.375Z,1009.90
2019-03-02T06:27:59.390Z,1009.95
2019-03-02T06:28:59.400Z,1009.93
2019-03-02T06:29:59.413Z,1009.93
2019-03-02T06:30:59.429Z,1009.95
2019-03-02T06:31:59.440Z,1009.92
2019-03-02T06:32:59.450Z,1009.92
2019-03-02T06:33:59.467Z,1009.92
2019-03-02T06:34:59.483Z,1009.95
2019-03-02T06:35:59.492Z,1009.99
2019-03-02T06:36:59.502Z,1010.00
2019-03-02T06:37:59.516Z,1009.96
2019-03-02T06:38:59.530Z,1009.97
2019-03-02T06:39:59.543Z,1009.96
2019-03-02T06:40:59.555Z,1010.03
2019-03-02T06:41:59.569Z,1009.99
2019-03-02T06:42:59.582Z,1009.97
2019-03-02T06:43:59.594Z,1010.00
2019-03-02T06:44:59.605Z,1010.03
2019-03-02T06:45:59.620Z,1010.04
2019-03-02T06:46:59.634Z,1010.05
2019-03-02T06:47:59.646Z,1010.04
2019-03-02T06:48:59.659Z,1010.07
2019-03-02T06:50:00.140Z,1010.04
2019-03-02T06:50:59.685Z,1010.06
2019-03-02T06:51:59.706Z,1010.04
2019-03-02T06:53:01.493Z,1010.10
2019-03-02T06:53:59.725Z,1010.08
2019-03-02T06:54:59.738Z,1010.12
2019-03-02T06:56:00.719Z,1010.08
2019-03-02T06:56:59.763Z,1010.08
2019-03-02T06:57:59.775Z,1010.14
2019-03-02T06:59:00.644Z,1010.06
2019-03-02T06:59:59.802Z,1010.07
2019-03-02T07:00:59.815Z,1010.09
2019-03-02T07:02:00.829Z,1010.05
2019-03-02T07:02:59.842Z,1010.10
2019-03-02T07:03:59.855Z,1010.08
2019-03-02T07:04:59.891Z,1010.05
2019-03-02T07:05:59.881Z,1010.03
2019-03-02T07:06:59.895Z,1010.03
2019-03-02T07:07:59.908Z,1010.08
2019-03-02T07:08:59.920Z,1010.07
2019-03-02T07:09:59.933Z,1010.03
2019-03-02T07:10:59.945Z,1010.05
2019-03-02T07:11:59.958Z,1010.07
2019-03-02T07:12:59.976Z,1010.04
2019-03-02T07:13:59.986Z,1010.07
2019-03-02T07:15:00.000Z,1010.12
2019-03-02T07:16:00.013Z,1010.12
2019-03-02T07:17:00.027Z,1010.09
2019-03-02T07:18:01.990Z,1010.09
2019-03-02T07:19:00.052Z,1010.09
2019-03-02T07:20:00.103Z,1010.08
2019-03-02T07:21:02.962Z,1010.07
2019-03-02T07:22:00.091Z,1010.08
2019-03-02T07:23:00.110Z,1010.07
2019-03-02T07:24:00.120Z,1010.06
2019-03-02T07:25:01.365Z,1010.10
2019-03-02T07:26:00.146Z,1010.12
2019-03-02T07:27:00.160Z,1010.12
2019-03-02T07:28:01.843Z,1010.11
2019-03-02T07:29:00.185Z,1010.11
2019-03-02T07:30:00.265Z,1010.05
2019-03-02T07:31:00.212Z,1010.11
2019-03-02T07:32:00.225Z,1010.07
2019-03-02T07:33:00.239Z,1010.10
2019-03-02T07:34:00.252Z,1010.12
2019-03-02T07:35:00.444Z,1010.12
2019-03-02T07:36:00.281Z,1010.08
2019-03-02T07:37:00.293Z,1010.08
2019-03-02T07:38:00.309Z,1010.04
2019-03-02T07:39:00.329Z,1010.11
2019-03-02T07:40:00.355Z,1010.06
2019-03-02T07:41:00.350Z,1010.04
2019-03-02T07:42:00.362Z,1010.08
2019-03-02T07:43:00.380Z,1010.06
2019-03-02T07:44:00.389Z,1010.02
2019-03-02T07:45:00.407Z,1010.05
2019-03-02T07:46:00.416Z,1010.01
2019-03-02T07:47:00.428Z,1010.00
2019-03-02T07:48:01.521Z,1010.04
2019-03-02T07:49:00.459Z,1010.05
2019-03-02T07:50:00.472Z,1010.09
2019-03-02T07:51:04.729Z,1010.10
2019-03-02T07:52:00.499Z,1010.14
2019-03-02T07:53:00.511Z,1010.13
2019-03-02T07:54:02.169Z,1010.15
2019-03-02T07:55:00.548Z,1010.11
2019-03-02T07:56:00.553Z,1010.16
2019-03-02T07:57:00.566Z,1010.16
2019-03-02T07:58:00.585Z,1010.15
2019-03-02T07:59:00.595Z,1010.16
2019-03-02T08:00:02.086Z,1010.14
2019-03-02T08:01:00.622Z,1010.12
2019-03-02T08:02:00.636Z,1010.09
2019-03-02T08:03:00.650Z,1010.06
2019-03-02T08:04:01.045Z,1010.15
2019-03-02T08:05:00.679Z,1010.17
2019-03-02T08:06:01.293Z,1010.15
2019-03-02T08:07:01.479Z,1010.14
2019-03-02T08:08:00.721Z,1010.14
2019-03-02T08:09:00.735Z,1010.16
2019-03-02T08:10:02.154Z,1010.02
2019-03-02T08:11:00.764Z,1010.06
2019-03-02T08:12:00.778Z,1010.07
2019-03-02T08:13:01.686Z,1010.01
2019-03-02T08:14:00.804Z,1010.07
2019-03-02T08:15:00.819Z,1010.04
2019-03-02T08:16:03.179Z,1010.04
2019-03-02T08:17:00.849Z,1009.99
2019-03-02T08:18:00.863Z,1010.01
2019-03-02T08:19:03.940Z,1010.02
2019-03-02T08:20:00.890Z,1009.98
2019-03-02T08:21:01.715Z,1010.00
2019-03-02T08:22:00.994Z,1010.01
2019-03-02T08:23:00.982Z,1010.02
2019-03-02T08:24:00.980Z,1010.04
2019-03-02T08:25:01.048Z,1010.01
2019-03-02T08:26:01.053Z,1010.01
2019-03-02T08:27:01.051Z,1010.04
2019-03-02T08:28:01.056Z,1010.03
2019-03-02T08:29:01.046Z,1010.02
2019-03-02T08:30:01.036Z,1010.04
2019-03-02T08:31:01.050Z,1010.12
2019-03-02T08:32:01.061Z,1010.09
2019-03-02T08:33:01.079Z,1010.07
2019-03-02T08:34:01.091Z,1010.08
2019-03-02T08:35:01.113Z,1010.04
2019-03-02T08:36:01.117Z,1010.04
2019-03-02T08:37:01.134Z,1010.02
2019-03-02T08:38:01.681Z,1010.02
2019-03-02T08:39:01.160Z,1010.01
2019-03-02T08:40:02.019Z,1010.01
2019-03-02T08:41:01.785Z,1010.08
2019-03-02T08:42:01.204Z,1010.04
2019-03-02T08:43:01.226Z,1010.03
2019-03-02T08:44:01.234Z,1010.09
2019-03-02T08:45:01.249Z,1010.01
2019-03-02T08:46:03.560Z,1010.03
2019-03-02T08:47:01.280Z,1010.03
2019-03-02T08:48:01.290Z,1010.02
2019-03-02T08:49:02.882Z,1010.05
2019-03-02T08:50:01.322Z,1010.05
2019-03-02T08:51:01.336Z,1010.08
2019-03-02T08:52:01.350Z,1010.03
2019-03-02T08:53:01.366Z,1010.05
2019-03-02T08:54:01.388Z,1010.06
2019-03-02T08:55:01.401Z,1010.05
2019-03-02T08:56:01.408Z,1010.06
2019-03-02T08:57:01.424Z,1010.03
2019-03-02T08:58:01.439Z,1010.06
2019-03-02T08:59:02.041Z,1010.03
2019-03-02T09:00:01.469Z,1010.05
2019-03-02T09:01:01.487Z,1010.10
2019-03-02T09:02:01.500Z,1010.05
2019-03-02T09:03:01.514Z,1010.07
2019-03-02T09:04:03.200Z,1010.04
2019-03-02T09:05:01.544Z,1010.07
2019-03-02T09:06:11.095Z,1010.04
2019-03-02T09:07:01.572Z,1010.06
2019-03-02T09:08:01.588Z,1010.08
2019-03-02T09:09:01.600Z,1010.12
2019-03-02T09:10:01.616Z,1010.12
2019-03-02T09:11:01.633Z,1010.14
2019-03-02T09:12:01.646Z,1010.08
2019-03-02T09:13:01.661Z,1010.08
2019-03-02T09:14:01.677Z,1010.03
2019-03-02T09:15:01.691Z,1010.03
2019-03-02T09:16:05.380Z,1010.07
2019-03-02T09:17:01.722Z,1010.06
2019-03-02T09:18:01.736Z,1010.09
2019-03-02T09:19:01.756Z,1010.03
2019-03-02T09:20:01.768Z,1010.04
2019-03-02T09:21:01.786Z,1010.06
2019-03-02T09:22:01.797Z,1010.07
2019-03-02T09:23:01.840Z,1010.05
2019-03-02T09:24:01.827Z,1010.06
2019-03-02T09:25:01.840Z,1010.10
2019-03-02T09:26:04.504Z,1010.05
2019-03-02T09:27:01.871Z,1010.04
2019-03-02T09:28:01.887Z,1010.05
2019-03-02T09:29:01.903Z,1010.07
2019-03-02T09:30:01.918Z,1010.10
2019-03-02T09:31:02.125Z,1010.12
2019-03-02T09:32:01.947Z,1010.12
2019-03-02T09:33:01.962Z,1010.12
2019-03-02T09:34:04.194Z,1010.10
2019-03-02T09:35:01.995Z,1010.11
2019-03-02T09:36:02.008Z,1010.08
2019-03-02T09:37:03.868Z,1010.11
2019-03-02T09:38:02.037Z,1010.13
2019-03-02T09:39:02.062Z,1010.15
2019-03-02T09:40:02.070Z,1010.10
2019-03-02T09:41:02.090Z,1010.12
2019-03-02T09:42:02.511Z,1010.12
2019-03-02T09:43:02.115Z,1010.09
2019-03-02T09:44:02.129Z,1010.10
2019-03-02T09:45:02.146Z,1010.11
2019-03-02T09:46:02.160Z,1010.09
2019-03-02T09:47:05.049Z,1010.10
2019-03-02T09:48:02.192Z,1010.12
2019-03-02T09:49:02.241Z,1010.13
2019-03-02T09:50:02.221Z,1010.12
2019-03-02T09:51:02.239Z,1010.11
2019-03-02T09:52:02.252Z,1010.15
2019-03-02T09:53:02.267Z,1010.11
2019-03-02T09:54:02.282Z,1010.10
2019-03-02T09:55:02.300Z,1010.09
2019-03-02T09:56:02.313Z,1010.08
2019-03-02T09:57:02.328Z,1010.14
2019-03-02T09:58:02.344Z,1010.13
2019-03-02T09:59:03.021Z,1010.13
2019-03-02T10:00:02.373Z,1010.14
2019-03-02T10:01:04.471Z,1010.13
2019-03-02T10:02:02.412Z,1010.17
2019-03-02T10:03:02.421Z,1010.14
2019-03-02T10:04:03.188Z,1010.20
2019-03-02T10:05:02.451Z,1010.24
2019-03-02T10:06:02.467Z,1010.14
2019-03-02T10:07:03.337Z,1010.22
2019-03-02T10:08:02.495Z,1010.17
2019-03-02T10:09:02.514Z,1010.18
2019-03-02T10:10:02.528Z,1010.24
2019-03-02T10:11:02.690Z,1010.22
2019-03-02T10:12:02.560Z,1010.18
2019-03-02T10:13:02.578Z,1010.20
2019-03-02T10:14:02.589Z,1010.19
2019-03-02T10:15:02.610Z,1010.21
2019-03-02T10:16:04.414Z,1010.21
2019-03-02T10:17:02.712Z,1010.21
2019-03-02T10:18:02.651Z,1010.17
2019-03-02T10:19:02.672Z,1010.16
2019-03-02T10:20:05.138Z,1010.21
2019-03-02T10:21:02.698Z,1010.14
2019-03-02T10:22:02.717Z,1010.19
2019-03-02T10:23:05.564Z,1010.16
2019-03-02T10:24:02.755Z,1010.14
2019-03-02T10:25:02.844Z,1010.19
2019-03-02T10:26:03.804Z,1010.17
2019-03-02T10:27:02.852Z,1010.17
2019-03-02T10:28:04.708Z,1010.16
2019-03-02T10:29:02.898Z,1010.21
2019-03-02T10:30:02.892Z,1010.27
2019-03-02T10:31:05.995Z,1010.30
2019-03-02T10:32:04.381Z,1010.32
2019-03-02T10:33:02.887Z,1010.36
2019-03-02T10:34:06.396Z,1010.28
2019-03-02T10:35:02.920Z,1010.29
2019-03-02T10:36:02.936Z,1010.26
2019-03-02T10:37:03.580Z,1010.27
2019-03-02T10:38:02.968Z,1010.27
2019-03-02T10:39:02.982Z,1010.26
2019-03-02T10:40:05.569Z,1010.27
2019-03-02T10:41:03.027Z,1010.30
2019-03-02T10:42:03.046Z,1010.31
2019-03-02T10:43:03.049Z,1010.29
2019-03-02T10:44:03.062Z,1010.33
2019-03-02T10:45:03.077Z,1010.31
2019-03-02T10:46:03.092Z,1010.29
2019-03-02T10:47:03.105Z,1010.29
2019-03-02T10:48:03.124Z,1010.33
2019-03-02T10:49:03.134Z,1010.33
2019-03-02T10:50:03.161Z,1010.33
2019-03-02T10:51:03.170Z,1010.23
2019-03-02T10:52:03.188Z,1010.27
2019-03-02T10:53:03.202Z,1010.28
2019-03-02T10:54:03.215Z,1010.28
2019-03-02T10:55:03.236Z,1010.27
2019-03-02T10:56:03.250Z,1010.25
2019-03-02T10:57:03.266Z,1010.23
2019-03-02T10:58:03.354Z,1010.20
2019-03-02T10:59:03.301Z,1010.19
2019-03-02T11:00:03.316Z,1010.19
2019-03-02T11:01:07.033Z,1010.23
2019-03-02T11:02:03.343Z,1010.18
2019-03-02T11:03:03.362Z,1010.19
2019-03-02T11:04:04.941Z,1010.20
2019-03-02T11:05:03.395Z,1010.24
2019-03-02T11:06:03.412Z,1010.17
2019-03-02T11:07:05.041Z,1010.24
2019-03-02T11:08:03.440Z,1010.22
2019-03-02T11:09:04.107Z,1010.22
2019-03-02T11:10:03.474Z,1010.20
2019-03-02T11:11:03.491Z,1010.21
2019-03-02T11:12:06.871Z,1010.21
2019-03-02T11:13:03.527Z,1010.21
2019-03-02T11:14:03.540Z,1010.20
2019-03-02T11:15:04.024Z,1010.24
2019-03-02T11:16:03.569Z,1010.23
2019-03-02T11:17:03.585Z,1010.23
2019-03-02T11:18:03.606Z,1010.16
2019-03-02T11:19:04.240Z,1010.18
2019-03-02T11:20:03.645Z,1010.17
2019-03-02T11:21:03.649Z,1010.18
2019-03-02T11:22:03.670Z,1010.15
2019-03-02T11:23:03.691Z,1010.16
2019-03-02T11:24:03.701Z,1010.20
2019-03-02T11:25:03.717Z,1010.16
2019-03-02T11:26:03.736Z,1010.18
2019-03-02T11:27:03.749Z,1010.15
2019-03-02T11:28:03.765Z,1010.22
2019-03-02T11:29:03.781Z,1010.18
2019-03-02T11:30:03.798Z,1010.20
2019-03-02T11:31:03.816Z,1010.18
2019-03-02T11:32:03.830Z,1010.20
2019-03-02T11:33:03.846Z,1010.20
2019-03-02T11:34:03.865Z,1010.23
2019-03-02T11:35:06.906Z,1010.23
2019-03-02T11:36:03.894Z,1010.20
2019-03-02T11:37:03.914Z,1010.17
2019-03-02T11:38:03.934Z,1010.18
2019-03-02T11:39:03.945Z,1010.15
2019-03-02T11:40:03.961Z,1010.11
2019-03-02T11:41:04.993Z,1010.12
2019-03-02T11:42:03.992Z,1010.14
2019-03-02T11:43:05.066Z,1010.15
2019-03-02T11:44:04.027Z,1010.13
2019-03-02T11:45:04.046Z,1010.09
2019-03-02T11:46:04.060Z,1010.08
2019-03-02T11:47:04.077Z,1010.04
2019-03-02T11:48:04.093Z,1010.06
2019-03-02T11:49:04.110Z,1010.04
2019-03-02T11:50:04.125Z,1010.00
2019-03-02T11:51:04.142Z,1010.00
2019-03-02T11:52:04.159Z,1010.00
2019-03-02T11:53:04.178Z,1009.98
2019-03-02T11:54:04.196Z,1010.01
2019-03-02T11:55:04.499Z,1010.00
2019-03-02T11:56:06.603Z,1009.99
2019-03-02T11:57:04.246Z,1009.95
2019-03-02T11:58:04.258Z,1009.99
2019-03-02T11:59:06.003Z,1009.99
2019-03-02T12:00:04.293Z,1009.93
2019-03-02T12:01:04.309Z,1009.96
2019-03-02T12:02:04.325Z,1009.97
2019-03-02T12:03:04.343Z,1009.92
2019-03-02T12:04:04.360Z,1009.93
2019-03-02T12:05:04.376Z,1009.92
2019-03-02T12:06:05.962Z,1009.92